Time;durP1;ratioP1;P1;durP2;ratioP2;P2;SDS_P1;SDS_P2;PMS_P1;PMS_P2;Temp;Humidity;BMP_temperature;BMP_pressure;BME280_temperature;BME280_humidity;BME280_pressure;Samples;Min_cycle;Max_cycle;Signal;HPM_P1;HPM_P2
2020/12/30 00:00:39;;;;;;;4.77;4.17;;;23.00;30.70;;;;;;5014565;28;20397;-69
2020/12/30 00:03:05;;;;;;;5.45;4.30;;;23.00;30.80;;;;;;5013967;28;20826;-69
2020/12/30 00:05:30;;;;;;;5.15;4.28;;;23.00;30.80;;;;;;5014527;28;20877;-68
2020/12/30 00:07:56;;;;;;;5.05;4.38;;;22.90;30.70;;;;;;5014447;28;20399;-68
2020/12/30 00:10:22;;;;;;;4.78;4.30;;;22.90;30.70;;;;;;5014335;28;20465;-68
2020/12/30 00:12:49;;;;;;;5.10;4.13;;;22.90;30.70;;;;;;5014136;28;20424;-70
2020/12/30 00:15:16;;;;;;;4.30;3.90;;;22.90;30.90;;;;;;5013856;28;20930;-68
2020/12/30 00:17:42;;;;;;;4.28;3.88;;;22.90;31.10;;;;;;5014282;28;20433;-68
2020/12/30 00:20:10;;;;;;;5.05;4.00;;;22.80;30.90;;;;;;5014100;28;20393;-68
2020/12/30 00:22:36;;;;;;;4.63;4.15;;;22.80;30.90;;;;;;5014152;28;20393;-68
2020/12/30 00:25:03;;;;;;;4.35;3.85;;;22.80;31.00;;;;;;5013106;28;20403;-69
2020/12/30 00:27:29;;;;;;;4.47;3.65;;;22.70;31.00;;;;;;5014029;28;20770;-68
2020/12/30 00:29:55;;;;;;;4.20;3.80;;;22.70;30.80;;;;;;4996398;28;20893;-68
2020/12/30 00:32:20;;;;;;;4.27;3.70;;;22.70;31.10;;;;;;4996275;28;20984;-68
2020/12/30 00:34:46;;;;;;;4.13;3.58;;;22.70;30.80;;;;;;5013784;28;20385;-68
2020/12/30 00:37:12;;;;;;;3.67;3.38;;;22.60;30.90;;;;;;4995910;28;20405;-68
2020/12/30 00:39:38;;;;;;;4.22;3.47;;;22.60;30.60;;;;;;4996281;28;20408;-68
2020/12/30 00:42:04;;;;;;;4.00;3.42;;;22.60;30.70;;;;;;4996120;28;20447;-68
2020/12/30 00:44:29;;;;;;;3.83;3.33;;;22.50;31.00;;;;;;5013690;28;20388;-69
2020/12/30 00:46:56;;;;;;;4.15;3.47;;;22.50;31.00;;;;;;5013679;28;20958;-69
2020/12/30 00:49:23;;;;;;;3.67;3.30;;;22.50;30.80;;;;;;5013121;28;20389;-68
2020/12/30 00:51:53;;;;;;;3.90;3.38;;;22.50;31.20;;;;;;4995582;28;20405;-69
2020/12/30 00:54:20;;;;;;;3.67;3.13;;;22.50;31.20;;;;;;4996009;28;20401;-69
2020/12/30 00:56:46;;;;;;;3.77;3.20;;;22.50;30.90;;;;;;5013597;28;20458;-69
2020/12/30 00:59:13;;;;;;;4.27;3.53;;;22.40;30.90;;;;;;4991923;28;20840;-70
2020/12/30 01:01:39;;;;;;;3.83;3.30;;;22.40;31.00;;;;;;4989265;28;20401;-69
2020/12/30 01:04:05;;;;;;;3.92;3.30;;;22.40;31.20;;;;;;4994836;28;20486;-69
2020/12/30 01:06:31;;;;;;;3.65;3.05;;;22.40;30.90;;;;;;5013537;28;20397;-69
2020/12/30 01:08:57;;;;;;;3.60;3.10;;;22.40;31.80;;;;;;5007387;28;20441;-70
2020/12/30 01:11:28;;;;;;;3.47;3.10;;;22.40;31.20;;;;;;4988089;28;20477;-69
2020/12/30 01:13:54;;;;;;;3.50;2.90;;;22.30;31.20;;;;;;4993481;28;20426;-69
2020/12/30 01:16:20;;;;;;;3.27;2.83;;;22.30;31.30;;;;;;4978882;28;21044;-69
2020/12/30 01:18:47;;;;;;;3.40;3.08;;;22.30;31.30;;;;;;4993502;28;20452;-68
2020/12/30 01:21:13;;;;;;;3.63;3.05;;;22.30;31.30;;;;;;4992682;28;20394;-68
2020/12/30 01:23:39;;;;;;;3.33;3.03;;;22.30;31.80;;;;;;4992112;28;20410;-68
2020/12/30 01:26:06;;;;;;;3.20;2.90;;;22.20;31.20;;;;;;4992882;28;20481;-68
2020/12/30 01:28:33;;;;;;;3.60;3.00;;;22.30;31.20;;;;;;4976155;28;20493;-68
2020/12/30 01:30:59;;;;;;;3.28;2.88;;;22.30;30.90;;;;;;4995082;28;20390;-69
2020/12/30 01:33:25;;;;;;;3.88;2.97;;;22.40;31.70;;;;;;5000808;28;20480;-68
2020/12/30 01:35:50;;;;;;;3.70;3.08;;;22.40;31.60;;;;;;4999974;28;20400;-68
2020/12/30 01:38:16;;;;;;;3.47;2.93;;;22.40;31.80;;;;;;5002107;28;20436;-69
2020/12/30 01:40:42;;;;;;;3.38;2.85;;;22.50;31.90;;;;;;4980761;28;20418;-68
2020/12/30 01:43:08;;;;;;;3.73;3.00;;;22.60;31.80;;;;;;5002371;28;20401;-69
2020/12/30 01:45:34;;;;;;;3.55;2.85;;;22.60;31.90;;;;;;5002041;28;20405;-68
2020/12/30 01:48:06;;;;;;;4.15;2.85;;;22.60;31.70;;;;;;5001109;28;20405;-68
2020/12/30 01:50:32;;;;;;;3.40;2.80;;;22.60;31.70;;;;;;5003031;28;20416;-68
2020/12/30 01:52:58;;;;;;;5.07;2.90;;;22.60;31.80;;;;;;4999877;28;20446;-68
2020/12/30 01:55:25;;;;;;;4.22;2.97;;;22.70;31.80;;;;;;5001198;28;20460;-69
2020/12/30 01:57:52;;;;;;;3.30;2.55;;;22.70;31.80;;;;;;5000515;28;20404;-68
2020/12/30 02:00:18;;;;;;;3.08;2.60;;;22.60;31.90;;;;;;5000479;28;20398;-69
2020/12/30 02:02:48;;;;;;;3.10;2.50;;;22.60;32.30;;;;;;5003028;28;20541;-69
2020/12/30 02:05:18;;;;;;;3.30;2.50;;;22.60;32.30;;;;;;4982009;28;20395;-68
2020/12/30 02:07:44;;;;;;;2.53;2.25;;;22.60;32.30;;;;;;5003070;28;20489;-69
2020/12/30 02:10:10;;;;;;;3.10;2.75;;;22.60;32.10;;;;;;5000631;28;20488;-67
2020/12/30 02:12:37;;;;;;;3.25;2.53;;;22.60;32.10;;;;;;4996601;28;20429;-68
2020/12/30 02:15:03;;;;;;;3.08;2.63;;;22.60;31.60;;;;;;4998125;28;20898;-68
2020/12/30 02:17:28;;;;;;;4.10;2.40;;;22.60;31.70;;;;;;4992369;28;20514;-68
2020/12/30 02:19:54;;;;;;;3.45;2.50;;;22.60;31.90;;;;;;4992546;28;20398;-68
2020/12/30 02:22:23;;;;;;;3.17;2.43;;;22.60;31.60;;;;;;4975248;28;20398;-68
2020/12/30 02:24:48;;;;;;;3.72;2.75;;;22.50;31.80;;;;;;4992444;28;20475;-68
2020/12/30 02:27:14;;;;;;;3.00;2.40;;;22.50;31.90;;;;;;4974511;28;20535;-67
2020/12/30 02:29:40;;;;;;;3.13;2.60;;;22.50;31.70;;;;;;4992482;28;20386;-68
2020/12/30 02:32:05;;;;;;;2.90;2.30;;;22.50;31.90;;;;;;4974901;28;20831;-67
2020/12/30 02:34:31;;;;;;;2.95;2.40;;;22.50;31.70;;;;;;4974860;28;21010;-68
2020/12/30 02:36:57;;;;;;;3.13;2.30;;;22.50;31.60;;;;;;4974871;28;20382;-68
2020/12/30 02:39:23;;;;;;;2.90;2.40;;;22.50;31.60;;;;;;4991864;28;20483;-68
2020/12/30 02:41:49;;;;;;;2.70;2.22;;;22.50;31.60;;;;;;4992101;28;20422;-67
2020/12/30 02:44:15;;;;;;;3.83;2.38;;;22.50;31.60;;;;;;4992127;28;20437;-68
2020/12/30 02:46:41;;;;;;;2.88;2.42;;;22.50;31.60;;;;;;4992229;28;20398;-68
2020/12/30 02:49:07;;;;;;;2.90;2.28;;;22.40;31.40;;;;;;4991882;28;20390;-68
2020/12/30 02:51:32;;;;;;;2.60;2.30;;;22.40;31.50;;;;;;4991974;28;20962;-67
2020/12/30 02:53:58;;;;;;;3.33;2.50;;;22.40;31.40;;;;;;4992030;28;20421;-67
2020/12/30 02:56:24;;;;;;;2.60;2.30;;;22.40;31.20;;;;;;4992042;28;20871;-67
2020/12/30 02:58:50;;;;;;;3.72;2.28;;;22.40;31.30;;;;;;4992044;28;20409;-68
2020/12/30 03:01:17;;;;;;;2.55;2.20;;;22.40;31.40;;;;;;4991529;28;20399;-67
2020/12/30 03:03:43;;;;;;;3.20;2.47;;;22.40;31.30;;;;;;4991837;28;20402;-68
2020/12/30 03:06:10;;;;;;;3.17;2.20;;;22.40;31.40;;;;;;4974692;28;20391;-68
2020/12/30 03:08:36;;;;;;;2.78;2.00;;;22.40;31.40;;;;;;4991930;28;20481;-68
2020/12/30 03:11:02;;;;;;;2.80;2.30;;;22.40;31.40;;;;;;4991869;28;20759;-68
2020/12/30 03:13:28;;;;;;;2.37;1.90;;;22.40;31.20;;;;;;4991673;28;20430;-68
2020/12/30 03:15:54;;;;;;;2.40;2.00;;;22.40;31.10;;;;;;4991884;28;20394;-67
2020/12/30 03:18:20;;;;;;;2.42;2.03;;;22.40;31.20;;;;;;4991866;28;20488;-68
2020/12/30 03:20:46;;;;;;;2.43;2.20;;;22.40;31.30;;;;;;4991712;28;20422;-67
2020/12/30 03:23:11;;;;;;;2.10;1.90;;;22.30;31.20;;;;;;4991389;28;20398;-67
2020/12/30 03:25:37;;;;;;;2.30;2.03;;;22.40;31.30;;;;;;4992416;28;20391;-68
2020/12/30 03:28:03;;;;;;;2.63;2.10;;;22.30;31.20;;;;;;4995594;28;20398;-67
2020/12/30 03:30:29;;;;;;;2.38;2.05;;;22.40;31.30;;;;;;4995649;28;20386;-68
2020/12/30 03:32:55;;;;;;;2.40;1.90;;;22.30;31.10;;;;;;4995453;28;20469;-68
2020/12/30 03:35:24;;;;;;;2.20;1.80;;;22.30;31.20;;;;;;4995059;28;20386;-68
2020/12/30 03:37:54;;;;;;;2.60;2.00;;;22.30;31.10;;;;;;4995396;28;20398;-68
2020/12/30 03:40:20;;;;;;;2.20;1.73;;;22.30;31.20;;;;;;4995797;28;20886;-68
2020/12/30 03:42:46;;;;;;;2.50;1.73;;;22.40;31.20;;;;;;4977802;28;20403;-68
2020/12/30 03:45:12;;;;;;;1.98;1.70;;;22.30;31.20;;;;;;4994964;28;20394;-68
2020/12/30 03:47:38;;;;;;;2.20;1.80;;;22.30;31.30;;;;;;4995368;28;20410;-68
2020/12/30 03:50:04;;;;;;;2.30;1.90;;;22.30;31.30;;;;;;4977712;28;20879;-67
2020/12/30 03:52:30;;;;;;;2.05;1.70;;;22.30;31.30;;;;;;4977463;28;20516;-68
2020/12/30 03:54:56;;;;;;;2.45;1.73;;;22.30;31.20;;;;;;4995229;28;20549;-68
2020/12/30 03:57:22;;;;;;;2.30;1.70;;;22.30;31.20;;;;;;4977154;28;20956;-67
2020/12/30 03:59:47;;;;;;;2.37;1.70;;;22.30;31.20;;;;;;4995030;28;20481;-67
2020/12/30 04:02:13;;;;;;;2.08;1.70;;;22.30;31.20;;;;;;4995022;28;20397;-67
2020/12/30 04:04:39;;;;;;;2.40;1.80;;;22.30;31.20;;;;;;4977405;28;20427;-68
2020/12/30 04:07:04;;;;;;;2.80;1.67;;;22.30;31.20;;;;;;4977484;28;20898;-68
2020/12/30 04:09:30;;;;;;;2.50;1.90;;;22.30;31.30;;;;;;4994737;28;20402;-68
2020/12/30 04:11:56;;;;;;;2.63;1.73;;;22.20;31.30;;;;;;4994613;28;20798;-68
2020/12/30 04:14:21;;;;;;;3.10;1.67;;;22.30;31.30;;;;;;4994965;28;20497;-68
2020/12/30 04:16:47;;;;;;;2.28;1.70;;;22.20;31.50;;;;;;4994774;28;20929;-68
2020/12/30 04:19:12;;;;;;;2.27;1.60;;;22.20;31.70;;;;;;4994280;28;20430;-68
2020/12/30 04:21:39;;;;;;;3.53;1.90;;;22.30;31.50;;;;;;4994936;28;20422;-68
2020/12/30 04:24:05;;;;;;;3.15;1.73;;;22.20;32.10;;;;;;4977105;28;20406;-68
2020/12/30 04:26:30;;;;;;;2.60;1.70;;;22.10;32.20;;;;;;4977158;28;20406;-68
2020/12/30 04:28:56;;;;;;;3.78;1.75;;;22.20;32.10;;;;;;4994297;28;20394;-68
2020/12/30 04:31:22;;;;;;;1.80;1.40;;;22.10;32.30;;;;;;4994046;28;20401;-68
2020/12/30 04:33:47;;;;;;;3.57;1.80;;;22.20;32.20;;;;;;4994380;28;20426;-69
2020/12/30 04:36:14;;;;;;;2.50;1.70;;;22.20;32.50;;;;;;4994576;28;20877;-69
2020/12/30 04:38:41;;;;;;;4.55;1.50;;;22.20;32.50;;;;;;4993583;28;20398;-68
2020/12/30 04:41:16;;;;;;;1.90;1.50;;;22.20;32.80;;;;;;4994965;28;20406;-68
2020/12/30 04:43:44;;;;;;;3.35;1.70;;;22.20;32.40;;;;;;4976677;28;20395;-68
2020/12/30 04:46:12;;;;;;;2.22;1.60;;;22.20;32.40;;;;;;4994470;28;20391;-68
2020/12/30 04:48:39;;;;;;;1.73;1.52;;;22.20;32.20;;;;;;4976420;28;20407;-68
2020/12/30 04:51:05;;;;;;;3.17;1.60;;;22.20;32.50;;;;;;4976128;28;20507;-69
2020/12/30 04:53:32;;;;;;;4.50;1.67;;;22.20;32.90;;;;;;4993386;28;20476;-68
2020/12/30 04:56:00;;;;;;;2.40;1.50;;;22.20;32.90;;;;;;4976059;28;20464;-68
2020/12/30 04:58:30;;;;;;;3.17;1.63;;;22.20;33.00;;;;;;4975833;28;20403;-69
2020/12/30 05:00:58;;;;;;;1.83;1.40;;;22.20;33.30;;;;;;4993191;28;20867;-68
2020/12/30 05:03:29;;;;;;;3.10;1.50;;;22.20;33.10;;;;;;4975233;28;20449;-68
2020/12/30 05:05:59;;;;;;;1.90;1.60;;;22.20;32.80;;;;;;4993074;28;20425;-68
2020/12/30 05:08:25;;;;;;;2.30;1.70;;;22.20;33.00;;;;;;4992832;28;20405;-69
2020/12/30 05:10:52;;;;;;;1.90;1.40;;;22.20;33.00;;;;;;4992725;28;20430;-69
2020/12/30 05:13:19;;;;;;;2.00;1.60;;;22.20;32.60;;;;;;4992986;28;20890;-69
2020/12/30 05:15:45;;;;;;;3.25;1.60;;;22.20;32.50;;;;;;4993086;28;20390;-69
2020/12/30 05:18:11;;;;;;;2.20;1.67;;;22.20;33.20;;;;;;4993305;28;20893;-69
2020/12/30 05:20:36;;;;;;;3.40;1.70;;;22.20;33.00;;;;;;4993257;28;20382;-68
2020/12/30 05:23:09;;;;;;;3.50;1.50;;;22.20;32.90;;;;;;4993393;28;20394;-68
2020/12/30 05:25:36;;;;;;;3.65;1.40;;;22.20;32.70;;;;;;4992287;28;20397;-69
2020/12/30 05:28:08;;;;;;;2.33;1.48;;;22.20;32.60;;;;;;4975364;28;20397;-68
2020/12/30 05:30:36;;;;;;;2.38;1.63;;;22.20;32.90;;;;;;4976204;28;20729;-69
2020/12/30 05:33:04;;;;;;;4.68;1.80;;;22.20;32.30;;;;;;4975898;28;20426;-68
2020/12/30 05:35:31;;;;;;;7.00;1.83;;;22.10;32.60;;;;;;4992600;28;20390;-68
2020/12/30 05:37:57;;;;;;;4.53;1.60;;;22.10;32.60;;;;;;4993512;28;20871;-68
2020/12/30 05:40:32;;;;;;;6.38;1.58;;;22.10;33.00;;;;;;4993354;28;20401;-68
2020/12/30 05:43:17;;;;;;;2.92;1.63;;;22.10;32.90;;;;;;4993312;28;20391;-68
2020/12/30 05:45:47;;;;;;;3.65;1.65;;;22.10;32.60;;;;;;4985671;28;20398;-68
2020/12/30 05:48:14;;;;;;;4.50;1.63;;;22.10;32.10;;;;;;4975748;28;20398;-69
2020/12/30 05:50:47;;;;;;;5.63;1.70;;;22.00;31.90;;;;;;4992983;28;20473;-68
2020/12/30 05:53:14;;;;;;;4.97;1.60;;;22.00;31.60;;;;;;4992832;28;20418;-69
2020/12/30 05:55:40;;;;;;;5.35;1.50;;;22.00;32.30;;;;;;4992803;28;20863;-69
2020/12/30 05:58:12;;;;;;;5.18;1.77;;;22.00;31.90;;;;;;4975392;28;20751;-68
2020/12/30 06:00:37;;;;;;;3.65;1.50;;;22.10;31.90;;;;;;4975577;28;20398;-68
2020/12/30 06:03:03;;;;;;;4.80;1.77;;;22.10;32.00;;;;;;4975027;28;20403;-68
2020/12/30 06:05:29;;;;;;;10.15;1.80;;;22.00;32.30;;;;;;4974878;28;20918;-68
2020/12/30 06:07:55;;;;;;;5.63;1.90;;;22.00;32.40;;;;;;4975189;28;20493;-68
2020/12/30 06:10:23;;;;;;;4.40;1.70;;;22.00;32.60;;;;;;4975140;28;20399;-68
2020/12/30 06:12:49;;;;;;;5.10;1.65;;;21.90;32.20;;;;;;4992578;28;20476;-68
2020/12/30 06:15:28;;;;;;;3.63;1.80;;;21.90;32.40;;;;;;4974970;28;20411;-69
2020/12/30 06:18:02;;;;;;;3.30;1.60;;;22.00;33.00;;;;;;4960559;28;20821;-68
2020/12/30 06:20:36;;;;;;;4.13;1.50;;;22.00;32.30;;;;;;4974760;28;20796;-68
2020/12/30 06:23:08;;;;;;;4.80;1.80;;;22.00;32.30;;;;;;4992293;28;20887;-68
2020/12/30 06:25:36;;;;;;;4.28;1.60;;;22.00;32.20;;;;;;4974374;28;20410;-68
2020/12/30 06:28:15;;;;;;;3.90;1.50;;;21.90;32.30;;;;;;4992366;28;20452;-68
2020/12/30 06:30:43;;;;;;;4.47;1.58;;;21.90;32.10;;;;;;4992381;28;20387;-68
2020/12/30 06:33:09;;;;;;;3.20;1.55;;;21.90;32.00;;;;;;4974889;28;20453;-68
2020/12/30 06:35:36;;;;;;;4.45;1.48;;;21.90;32.00;;;;;;4974411;28;20517;-68
2020/12/30 06:38:29;;;;;;;4.70;1.55;;;21.90;32.00;;;;;;4992336;28;20402;-68
2020/12/30 06:40:59;;;;;;;3.67;1.40;;;21.90;31.90;;;;;;4974621;28;20424;-68
2020/12/30 06:43:48;;;;;;;3.70;1.50;;;21.90;31.90;;;;;;4991935;28;20474;-68
2020/12/30 06:46:23;;;;;;;2.70;1.40;;;21.90;32.10;;;;;;4992074;28;20429;-69
2020/12/30 06:49:00;;;;;;;3.20;1.40;;;21.90;32.10;;;;;;4975117;28;20449;-68
2020/12/30 06:51:27;;;;;;;2.53;1.40;;;21.80;32.10;;;;;;4992032;28;20414;-68
2020/12/30 06:53:56;;;;;;;2.67;1.60;;;21.90;32.20;;;;;;4974866;28;20517;-68
2020/12/30 06:56:42;;;;;;;3.53;1.60;;;21.90;32.00;;;;;;4974777;28;20442;-68
2020/12/30 06:59:26;;;;;;;5.03;1.60;;;21.90;32.10;;;;;;4974719;28;20406;-68
2020/12/30 07:02:03;;;;;;;2.80;1.60;;;21.90;32.10;;;;;;5004948;28;20483;-68
2020/12/30 07:04:33;;;;;;;4.57;1.70;;;21.90;32.00;;;;;;5013223;28;20492;-68
2020/12/30 07:06:59;;;;;;;3.17;1.90;;;21.90;31.80;;;;;;5000580;28;20853;-68
2020/12/30 07:09:30;;;;;;;4.28;2.30;;;21.90;31.80;;;;;;5017698;28;20455;-68
2020/12/30 07:11:56;;;;;;;4.63;2.40;;;21.90;31.90;;;;;;5018164;28;20746;-69
2020/12/30 07:14:26;;;;;;;5.22;2.40;;;21.90;32.00;;;;;;5018018;28;20483;-68
2020/12/30 07:16:57;;;;;;;4.63;2.30;;;21.80;32.10;;;;;;5018068;28;20397;-68
2020/12/30 07:19:34;;;;;;;3.85;1.95;;;21.80;32.40;;;;;;4999813;28;20439;-68
2020/12/30 07:22:09;;;;;;;4.18;2.05;;;21.80;32.20;;;;;;5000269;28;20442;-68
2020/12/30 07:24:53;;;;;;;3.20;2.00;;;21.80;32.20;;;;;;5017924;28;20397;-68
2020/12/30 07:27:21;;;;;;;3.88;2.03;;;21.80;32.10;;;;;;4999938;28;20539;-68
2020/12/30 07:29:48;;;;;;;5.47;2.25;;;21.80;32.10;;;;;;5017794;28;20427;-68
2020/12/30 07:32:15;;;;;;;4.00;1.98;;;21.80;32.10;;;;;;5017852;28;20404;-68
2020/12/30 07:34:44;;;;;;;4.35;2.00;;;21.80;32.10;;;;;;5017750;28;20491;-68
2020/12/30 07:37:11;;;;;;;3.60;1.70;;;21.80;32.10;;;;;;4985168;28;20487;-68
2020/12/30 07:39:39;;;;;;;2.92;1.80;;;21.80;32.00;;;;;;4980237;28;20763;-68
2020/12/30 07:42:10;;;;;;;2.35;1.50;;;21.80;32.00;;;;;;4980860;28;20430;-68
2020/12/30 07:44:49;;;;;;;3.38;1.90;;;21.80;32.00;;;;;;4998273;28;20406;-68
2020/12/30 07:47:15;;;;;;;2.97;1.70;;;21.80;31.90;;;;;;4998204;28;20522;-68
2020/12/30 07:49:41;;;;;;;3.47;1.90;;;21.80;31.90;;;;;;4980329;28;20489;-68
2020/12/30 07:52:08;;;;;;;2.60;1.70;;;21.70;31.90;;;;;;4998135;28;20422;-68
2020/12/30 07:54:33;;;;;;;2.50;1.73;;;21.80;31.90;;;;;;4998063;28;20406;-68
2020/12/30 07:57:13;;;;;;;2.63;1.73;;;21.70;31.90;;;;;;4980666;28;20488;-68
2020/12/30 07:59:47;;;;;;;3.30;1.90;;;21.70;31.80;;;;;;4997656;28;20405;-68
2020/12/30 08:02:14;;;;;;;2.40;1.70;;;21.70;31.70;;;;;;4998113;28;20445;-68
2020/12/30 08:04:40;;;;;;;2.70;1.70;;;21.70;31.80;;;;;;4997785;28;20441;-68
2020/12/30 08:07:11;;;;;;;2.90;1.90;;;21.70;31.80;;;;;;4997898;28;20498;-68
2020/12/30 08:09:39;;;;;;;2.55;1.70;;;21.70;31.80;;;;;;4997612;28;20473;-68
2020/12/30 08:12:06;;;;;;;2.40;1.70;;;21.70;31.80;;;;;;4996807;28;20486;-68
2020/12/30 08:14:37;;;;;;;2.33;1.63;;;21.70;31.70;;;;;;4994912;28;20393;-68
2020/12/30 08:17:07;;;;;;;2.92;2.00;;;21.70;31.70;;;;;;4994780;28;20446;-68
2020/12/30 08:19:39;;;;;;;2.58;1.70;;;21.70;32.30;;;;;;4994297;28;20460;-68
2020/12/30 08:22:15;;;;;;;3.40;2.10;;;21.70;31.80;;;;;;4994527;28;20493;-68
2020/12/30 08:24:41;;;;;;;2.97;1.98;;;21.70;31.70;;;;;;4994753;28;20437;-68
2020/12/30 08:27:08;;;;;;;2.80;1.88;;;21.70;31.70;;;;;;4994711;28;20386;-68
2020/12/30 08:29:36;;;;;;;2.80;2.00;;;21.70;31.70;;;;;;4994056;28;20402;-68
2020/12/30 08:32:26;;;;;;;3.60;2.00;;;21.60;31.60;;;;;;4994398;28;20399;-68
2020/12/30 08:35:04;;;;;;;2.75;1.90;;;21.70;31.80;;;;;;4994502;28;20414;-68
2020/12/30 08:37:33;;;;;;;3.00;2.00;;;21.60;31.70;;;;;;4977991;28;20406;-68
2020/12/30 08:40:04;;;;;;;2.75;2.00;;;21.60;31.70;;;;;;4994315;28;20406;-68
2020/12/30 08:42:56;;;;;;;2.90;2.05;;;21.60;31.70;;;;;;4976911;28;20947;-67
2020/12/30 08:45:30;;;;;;;3.08;2.38;;;21.70;31.60;;;;;;4994155;28;20437;-67
2020/12/30 08:47:58;;;;;;;3.30;2.10;;;21.60;31.60;;;;;;4994224;28;20512;-68
2020/12/30 08:50:25;;;;;;;4.70;3.05;;;21.60;32.00;;;;;;4994257;28;20481;-68
2020/12/30 08:52:53;;;;;;;5.25;3.22;;;21.70;33.80;;;;;;4994048;28;20473;-68
2020/12/30 08:55:19;;;;;;;4.10;2.75;;;21.80;34.30;;;;;;4993770;28;20402;-68
2020/12/30 08:57:46;;;;;;;3.58;2.50;;;21.80;33.90;;;;;;4993276;28;20389;-68
2020/12/30 09:00:19;;;;;;;6.15;2.42;;;21.80;33.40;;;;;;4993243;28;20437;-68
2020/12/30 09:02:46;;;;;;;5.55;2.55;;;21.70;33.20;;;;;;4974119;28;20435;-68
2020/12/30 09:05:12;;;;;;;5.15;2.53;;;21.70;33.50;;;;;;4994076;28;20422;-68
2020/12/30 09:07:39;;;;;;;4.70;2.50;;;21.70;33.50;;;;;;4975836;28;20920;-68
2020/12/30 09:10:10;;;;;;;3.25;2.50;;;21.80;33.10;;;;;;4976323;28;20810;-68
2020/12/30 09:12:38;;;;;;;3.75;2.50;;;21.80;33.40;;;;;;4992164;28;20419;-68
2020/12/30 09:15:06;;;;;;;4.18;2.28;;;21.70;32.80;;;;;;4992137;28;20386;-68
2020/12/30 09:17:32;;;;;;;3.00;2.20;;;21.70;32.50;;;;;;4974237;28;20485;-68
2020/12/30 09:20:31;;;;;;;4.70;2.42;;;21.70;32.50;;;;;;4991925;28;20407;-68
2020/12/30 09:23:00;;;;;;;3.80;2.40;;;21.70;32.30;;;;;;4948950;28;20429;-68
2020/12/30 09:25:31;;;;;;;3.43;2.33;;;21.70;32.20;;;;;;4991555;28;20603;-68
2020/12/30 09:27:57;;;;;;;3.53;2.42;;;21.70;32.30;;;;;;4993566;28;20455;-68
2020/12/30 09:30:26;;;;;;;4.00;2.63;;;21.70;32.20;;;;;;4993451;28;20399;-68
2020/12/30 09:32:54;;;;;;;3.58;2.70;;;21.70;32.20;;;;;;4993340;28;20433;-68
2020/12/30 09:35:26;;;;;;;3.47;2.70;;;21.70;32.00;;;;;;4976120;28;20397;-68
2020/12/30 09:37:59;;;;;;;4.10;3.20;;;21.70;32.10;;;;;;4975818;28;20403;-68
2020/12/30 09:40:28;;;;;;;6.68;5.00;;;21.70;31.90;;;;;;4993269;28;20418;-68
2020/12/30 09:43:08;;;;;;;6.07;4.22;;;21.70;32.00;;;;;;4974887;28;20405;-68
2020/12/30 09:45:34;;;;;;;5.75;3.88;;;21.70;33.10;;;;;;4992291;28;20744;-68
2020/12/30 09:48:17;;;;;;;5.37;4.17;;;21.70;33.40;;;;;;4970561;28;20421;-68
2020/12/30 09:50:44;;;;;;;4.78;3.88;;;21.70;32.60;;;;;;5004335;28;20399;-68
2020/12/30 09:53:10;;;;;;;7.13;4.13;;;21.70;32.60;;;;;;4992630;28;20415;-68
2020/12/30 09:55:36;;;;;;;4.90;4.30;;;21.70;32.50;;;;;;5007173;28;20471;-68
2020/12/30 09:58:03;;;;;;;6.50;4.13;;;21.70;32.50;;;;;;4994217;28;20544;-68
2020/12/30 10:00:29;;;;;;;6.93;5.70;;;21.70;32.30;;;;;;4994426;28;20397;-68
2020/12/30 10:02:55;;;;;;;9.63;8.50;;;21.60;32.90;;;;;;5011910;28;20439;-69
2020/12/30 10:05:20;;;;;;;8.37;5.80;;;21.60;32.60;;;;;;5011407;28;20407;-67
2020/12/30 10:07:47;;;;;;;6.35;5.40;;;21.60;32.50;;;;;;4996301;28;20484;-68
2020/12/30 10:10:12;;;;;;;6.63;4.85;;;21.60;32.50;;;;;;4992471;28;20398;-68
2020/12/30 10:12:39;;;;;;;6.40;4.82;;;21.70;32.50;;;;;;4992271;28;20422;-68
2020/12/30 10:15:06;;;;;;;7.13;5.05;;;21.70;32.40;;;;;;4992421;28;20418;-67
2020/12/30 10:17:32;;;;;;;6.47;5.00;;;21.50;32.30;;;;;;4992072;28;20861;-69
2020/12/30 10:19:58;;;;;;;6.15;4.57;;;21.60;33.00;;;;;;4992179;28;20421;-67
2020/12/30 10:22:23;;;;;;;6.53;5.20;;;21.60;32.80;;;;;;4992080;28;20401;-69
2020/12/30 10:24:49;;;;;;;5.60;4.90;;;21.50;32.50;;;;;;4992033;28;20386;-69
2020/12/30 10:27:17;;;;;;;8.73;5.87;;;21.50;32.70;;;;;;4989290;28;20406;-68
2020/12/30 10:29:43;;;;;;;7.00;6.00;;;21.50;32.60;;;;;;5006719;28;20494;-69
2020/12/30 10:32:09;;;;;;;13.55;12.15;;;21.50;32.30;;;;;;4991573;28;20901;-68
2020/12/30 10:34:36;;;;;;;9.30;7.73;;;21.60;32.10;;;;;;4991982;28;20407;-68
2020/12/30 10:37:05;;;;;;;9.73;8.43;;;21.60;31.90;;;;;;4962336;28;20475;-69
2020/12/30 10:39:33;;;;;;;16.67;15.07;;;21.60;32.00;;;;;;5000248;28;20490;-70
2020/12/30 10:42:00;;;;;;;11.38;10.18;;;21.50;32.00;;;;;;4999932;28;20391;-69
2020/12/30 10:44:26;;;;;;;10.60;9.55;;;21.60;32.10;;;;;;4998513;28;20505;-70
2020/12/30 10:46:53;;;;;;;14.60;12.35;;;21.50;33.00;;;;;;4998866;28;20405;-69
2020/12/30 10:49:21;;;;;;;13.35;11.43;;;21.50;32.40;;;;;;5001331;28;20504;-69
2020/12/30 10:51:48;;;;;;;11.77;10.38;;;21.60;32.40;;;;;;5000517;28;20387;-70
2020/12/30 10:54:17;;;;;;;19.08;15.10;;;21.60;32.60;;;;;;4996766;28;20436;-69
2020/12/30 10:57:01;;;;;;;15.75;13.65;;;21.60;32.90;;;;;;4999148;28;20394;-71
2020/12/30 10:59:27;;;;;;;19.50;16.02;;;21.60;32.80;;;;;;5001512;28;20388;-69
2020/12/30 11:01:54;;;;;;;18.85;16.67;;;21.60;32.60;;;;;;4983872;28;20905;-71
2020/12/30 11:04:21;;;;;;;23.55;19.48;;;21.60;32.50;;;;;;4979561;28;20819;-71
2020/12/30 11:06:48;;;;;;;29.25;23.38;;;21.60;32.40;;;;;;4978706;28;20499;-71
2020/12/30 11:09:14;;;;;;;24.98;20.30;;;21.50;32.30;;;;;;4980942;28;20390;-69
2020/12/30 11:11:41;;;;;;;27.05;22.05;;;21.60;32.50;;;;;;4982787;28;20899;-70
2020/12/30 11:14:07;;;;;;;29.50;22.75;;;21.60;32.50;;;;;;4982999;28;20431;-71
2020/12/30 11:16:33;;;;;;;30.53;24.67;;;21.60;32.40;;;;;;4964008;28;20390;-69
2020/12/30 11:18:59;;;;;;;30.85;25.50;;;21.60;32.40;;;;;;4979686;28;20438;-69
2020/12/30 11:21:24;;;;;;;35.42;28.23;;;21.60;32.20;;;;;;4980251;28;20446;-69
2020/12/30 11:23:52;;;;;;;35.83;27.67;;;21.50;32.10;;;;;;4980883;28;20408;-72
2020/12/30 11:26:19;;;;;;;36.55;28.50;;;21.60;32.10;;;;;;4980235;28;20441;-69
2020/12/30 11:28:45;;;;;;;37.03;29.00;;;21.60;32.10;;;;;;4980532;28;20433;-69
2020/12/30 11:31:13;;;;;;;37.75;30.02;;;21.60;32.10;;;;;;4982579;28;20887;-70
2020/12/30 11:33:41;;;;;;;38.38;30.55;;;21.60;32.00;;;;;;4961481;28;20439;-70
2020/12/30 11:36:07;;;;;;;38.88;30.77;;;21.60;32.00;;;;;;4980298;28;20402;-70
2020/12/30 11:38:32;;;;;;;38.47;30.65;;;21.60;32.00;;;;;;4979244;28;20404;-70
2020/12/30 11:40:58;;;;;;;38.40;30.40;;;21.60;32.00;;;;;;4979281;28;20478;-69
2020/12/30 11:43:24;;;;;;;38.63;30.80;;;21.60;32.50;;;;;;4979951;28;20780;-69
2020/12/30 11:45:50;;;;;;;37.43;30.23;;;21.60;31.90;;;;;;4979473;28;20397;-70
2020/12/30 11:48:17;;;;;;;37.05;30.38;;;21.60;31.90;;;;;;4982415;28;20402;-70
2020/12/30 11:50:42;;;;;;;37.15;29.27;;;21.60;31.90;;;;;;4981583;28;20392;-69
2020/12/30 11:53:08;;;;;;;37.60;29.55;;;21.60;31.80;;;;;;4983288;28;20413;-67
2020/12/30 11:55:35;;;;;;;36.47;30.00;;;21.60;31.80;;;;;;4983957;28;20452;-68
2020/12/30 11:58:01;;;;;;;36.55;28.92;;;21.60;31.80;;;;;;4983176;28;20821;-69
2020/12/30 12:00:26;;;;;;;35.57;28.47;;;21.60;31.90;;;;;;4983227;28;20908;-68
2020/12/30 12:02:52;;;;;;;35.08;28.40;;;21.50;31.90;;;;;;4981442;28;20406;-68
2020/12/30 12:05:17;;;;;;;33.00;27.20;;;21.50;31.90;;;;;;5004293;28;20392;-68
2020/12/30 12:07:44;;;;;;;33.80;27.88;;;21.50;31.90;;;;;;4997531;28;20385;-68
2020/12/30 12:10:11;;;;;;;32.47;25.90;;;21.50;31.90;;;;;;5000988;28;20900;-68
2020/12/30 12:12:37;;;;;;;30.60;24.92;;;21.50;31.90;;;;;;4989895;28;20906;-68
2020/12/30 12:15:07;;;;;;;31.30;24.60;;;21.40;32.20;;;;;;4984071;28;20427;-68
2020/12/30 12:17:34;;;;;;;29.42;24.15;;;21.40;32.40;;;;;;5000863;28;20389;-67
2020/12/30 12:20:00;;;;;;;30.95;25.05;;;21.50;32.40;;;;;;5003797;28;20410;-67
2020/12/30 12:22:26;;;;;;;30.45;24.35;;;21.50;32.30;;;;;;4997551;28;20397;-67
2020/12/30 12:24:52;;;;;;;29.23;23.80;;;21.50;32.80;;;;;;5000868;28;20482;-67
2020/12/30 12:27:18;;;;;;;28.55;23.40;;;21.50;32.10;;;;;;4997163;28;20409;-68
2020/12/30 12:29:51;;;;;;;27.02;22.70;;;21.40;32.10;;;;;;4986955;28;20391;-67
2020/12/30 12:32:22;;;;;;;27.13;21.85;;;21.40;32.20;;;;;;5002211;28;20939;-69
2020/12/30 12:34:51;;;;;;;26.80;21.58;;;21.40;32.40;;;;;;4983539;28;20487;-68
2020/12/30 12:37:18;;;;;;;26.13;20.77;;;21.40;32.60;;;;;;5000901;28;20401;-68
2020/12/30 12:39:46;;;;;;;25.17;20.67;;;21.40;32.40;;;;;;4984393;28;20749;-70
2020/12/30 12:42:12;;;;;;;25.47;21.00;;;21.40;32.40;;;;;;4985507;28;20502;-69
2020/12/30 12:44:38;;;;;;;23.50;18.88;;;21.40;32.30;;;;;;5004174;28;20395;-69
2020/12/30 12:47:06;;;;;;;23.35;19.60;;;21.50;32.10;;;;;;4985513;28;20399;-68